sensor_id;sensor_type;location;lat;lon;timestamp;P1;durP1;ratioP1;P2;durP2;ratioP2
1987;SDS011;12775;46.994;15.498;2023-06-04T00:02:15;7.62;;;6.92;;
1987;SDS011;12775;46.994;15.498;2023-06-04T00:04:42;7.80;;;7.00;;
1987;SDS011;12775;46.994;15.498;2023-06-04T00:07:09;7.56;;;6.88;;
1987;SDS011;12775;46.994;15.498;2023-06-04T00:09:36;8.94;;;6.78;;
1987;SDS011;12775;46.994;15.498;2023-06-04T00:12:02;8.88;;;7.52;;
1987;SDS011;12775;46.994;15.498;2023-06-04T00:14:29;7.58;;;6.70;;
1987;SDS011;12775;46.994;15.498;2023-06-04T00:16:55;7.44;;;6.74;;
1987;SDS011;12775;46.994;15.498;2023-06-04T00:19:22;7.12;;;6.52;;
1987;SDS011;12775;46.994;15.498;2023-06-04T00:21:49;7.68;;;6.98;;
1987;SDS011;12775;46.994;15.498;2023-06-04T00:24:16;9.18;;;7.76;;
1987;SDS011;12775;46.994;15.498;2023-06-04T00:26:44;11.74;;;7.60;;
1987;SDS011;12775;46.994;15.498;2023-06-04T00:29:10;8.16;;;7.40;;
1987;SDS011;12775;46.994;15.498;2023-06-04T00:31:37;8.50;;;7.70;;
1987;SDS011;12775;46.994;15.498;2023-06-04T00:34:03;10.34;;;7.86;;
1987;SDS011;12775;46.994;15.498;2023-06-04T00:36:30;8.60;;;7.70;;
1987;SDS011;12775;46.994;15.498;2023-06-04T00:38:56;10.64;;;8.10;;
1987;SDS011;12775;46.994;15.498;2023-06-04T00:41:24;8.26;;;7.46;;
1987;SDS011;12775;46.994;15.498;2023-06-04T00:43:50;7.82;;;7.02;;
1987;SDS011;12775;46.994;15.498;2023-06-04T00:46:25;10.74;;;7.52;;
1987;SDS011;12775;46.994;15.498;2023-06-04T00:48:51;10.84;;;9.82;;
1987;SDS011;12775;46.994;15.498;2023-06-04T00:51:18;11.56;;;9.62;;
1987;SDS011;12775;46.994;15.498;2023-06-04T00:53:44;10.58;;;9.54;;
1987;SDS011;12775;46.994;15.498;2023-06-04T00:56:11;9.76;;;8.86;;
1987;SDS011;12775;46.994;15.498;2023-06-04T00:58:38;10.56;;;8.86;;
1987;SDS011;12775;46.994;15.498;2023-06-04T01:01:04;9.58;;;8.50;;
1987;SDS011;12775;46.994;15.498;2023-06-04T01:03:31;10.56;;;9.18;;
1987;SDS011;12775;46.994;15.498;2023-06-04T01:06:02;9.04;;;8.16;;
1987;SDS011;12775;46.994;15.498;2023-06-04T01:08:26;9.34;;;8.22;;
1987;SDS011;12775;46.994;15.498;2023-06-04T01:10:54;8.98;;;8.18;;
1987;SDS011;12775;46.994;15.498;2023-06-04T01:13:20;9.56;;;7.92;;
1987;SDS011;12775;46.994;15.498;2023-06-04T01:15:47;10.66;;;8.02;;
1987;SDS011;12775;46.994;15.498;2023-06-04T01:18:15;8.68;;;7.88;;
1987;SDS011;12775;46.994;15.498;2023-06-04T01:20:42;9.64;;;8.08;;
1987;SDS011;12775;46.994;15.498;2023-06-04T01:23:18;8.52;;;7.70;;
1987;SDS011;12775;46.994;15.498;2023-06-04T01:25:46;15.24;;;8.12;;
1987;SDS011;12775;46.994;15.498;2023-06-04T01:28:13;12.04;;;8.90;;
1987;SDS011;12775;46.994;15.498;2023-06-04T01:30:42;10.98;;;8.42;;
1987;SDS011;12775;46.994;15.498;2023-06-04T01:33:09;10.44;;;8.02;;
1987;SDS011;12775;46.994;15.498;2023-06-04T01:35:36;9.74;;;8.80;;
1987;SDS011;12775;46.994;15.498;2023-06-04T01:38:02;11.50;;;8.42;;
1987;SDS011;12775;46.994;15.498;2023-06-04T01:40:29;9.44;;;8.54;;
1987;SDS011;12775;46.994;15.498;2023-06-04T01:42:56;8.62;;;7.82;;
1987;SDS011;12775;46.994;15.498;2023-06-04T01:45:22;9.38;;;8.42;;
1987;SDS011;12775;46.994;15.498;2023-06-04T01:47:49;9.12;;;8.22;;
1987;SDS011;12775;46.994;15.498;2023-06-04T01:50:16;8.92;;;8.12;;
1987;SDS011;12775;46.994;15.498;2023-06-04T01:52:43;9.58;;;8.58;;
1987;SDS011;12775;46.994;15.498;2023-06-04T01:55:11;11.58;;;8.58;;
1987;SDS011;12775;46.994;15.498;2023-06-04T01:57:36;8.62;;;7.82;;
1987;SDS011;12775;46.994;15.498;2023-06-04T02:00:03;9.56;;;8.76;;
1987;SDS011;12775;46.994;15.498;2023-06-04T02:02:30;8.62;;;7.82;;
1987;SDS011;12775;46.994;15.498;2023-06-04T02:04:56;11.56;;;7.64;;
1987;SDS011;12775;46.994;15.498;2023-06-04T02:07:23;9.02;;;8.22;;
1987;SDS011;12775;46.994;15.498;2023-06-04T02:09:49;8.56;;;7.68;;
1987;SDS011;12775;46.994;15.498;2023-06-04T02:12:16;9.68;;;8.04;;
1987;SDS011;12775;46.994;15.498;2023-06-04T02:14:43;9.70;;;8.70;;
1987;SDS011;12775;46.994;15.498;2023-06-04T02:17:11;10.46;;;9.50;;
1987;SDS011;12775;46.994;15.498;2023-06-04T02:19:40;8.88;;;8.00;;
1987;SDS011;12775;46.994;15.498;2023-06-04T02:22:06;9.78;;;8.68;;
1987;SDS011;12775;46.994;15.498;2023-06-04T02:24:33;9.32;;;8.52;;
1987;SDS011;12775;46.994;15.498;2023-06-04T02:27:00;10.48;;;8.74;;
1987;SDS011;12775;46.994;15.498;2023-06-04T02:29:26;11.00;;;9.58;;
1987;SDS011;12775;46.994;15.498;2023-06-04T02:31:54;10.58;;;8.88;;
1987;SDS011;12775;46.994;15.498;2023-06-04T02:34:20;10.32;;;7.74;;
1987;SDS011;12775;46.994;15.498;2023-06-04T02:36:47;10.28;;;9.16;;
1987;SDS011;12775;46.994;15.498;2023-06-04T02:39:14;9.64;;;8.72;;
1987;SDS011;12775;46.994;15.498;2023-06-04T02:41:41;10.76;;;9.16;;
1987;SDS011;12775;46.994;15.498;2023-06-04T02:44:08;10.50;;;9.18;;
1987;SDS011;12775;46.994;15.498;2023-06-04T02:46:34;9.96;;;8.96;;
1987;SDS011;12775;46.994;15.498;2023-06-04T02:49:01;10.26;;;9.26;;
1987;SDS011;12775;46.994;15.498;2023-06-04T02:51:28;13.44;;;10.08;;
1987;SDS011;12775;46.994;15.498;2023-06-04T02:53:54;12.42;;;10.84;;
1987;SDS011;12775;46.994;15.498;2023-06-04T02:56:21;10.88;;;9.46;;
1987;SDS011;12775;46.994;15.498;2023-06-04T02:58:50;10.48;;;9.46;;
1987;SDS011;12775;46.994;15.498;2023-06-04T03:01:17;12.04;;;10.38;;
1987;SDS011;12775;46.994;15.498;2023-06-04T03:03:43;10.06;;;8.86;;
1987;SDS011;12775;46.994;15.498;2023-06-04T03:06:10;10.36;;;9.36;;
1987;SDS011;12775;46.994;15.498;2023-06-04T03:08:37;10.22;;;9.38;;
1987;SDS011;12775;46.994;15.498;2023-06-04T03:11:04;10.20;;;9.24;;
1987;SDS011;12775;46.994;15.498;2023-06-04T03:13:31;11.60;;;9.60;;
1987;SDS011;12775;46.994;15.498;2023-06-04T03:15:57;10.32;;;9.08;;
1987;SDS011;12775;46.994;15.498;2023-06-04T03:18:24;13.78;;;9.96;;
1987;SDS011;12775;46.994;15.498;2023-06-04T03:20:51;10.00;;;9.00;;
1987;SDS011;12775;46.994;15.498;2023-06-04T03:23:17;12.46;;;8.72;;
1987;SDS011;12775;46.994;15.498;2023-06-04T03:25:44;9.20;;;7.90;;
1987;SDS011;12775;46.994;15.498;2023-06-04T03:28:11;10.82;;;9.18;;
1987;SDS011;12775;46.994;15.498;2023-06-04T03:30:37;12.94;;;10.32;;
1987;SDS011;12775;46.994;15.498;2023-06-04T03:33:04;10.02;;;8.72;;
1987;SDS011;12775;46.994;15.498;2023-06-04T03:35:31;10.22;;;9.18;;
1987;SDS011;12775;46.994;15.498;2023-06-04T03:37:58;16.38;;;10.00;;
1987;SDS011;12775;46.994;15.498;2023-06-04T03:40:24;11.02;;;8.82;;
1987;SDS011;12775;46.994;15.498;2023-06-04T03:42:51;9.68;;;8.90;;
1987;SDS011;12775;46.994;15.498;2023-06-04T03:45:18;14.20;;;10.54;;
1987;SDS011;12775;46.994;15.498;2023-06-04T03:47:45;9.60;;;8.80;;
1987;SDS011;12775;46.994;15.498;2023-06-04T03:50:11;10.62;;;9.54;;
1987;SDS011;12775;46.994;15.498;2023-06-04T03:52:37;14.54;;;10.30;;
1987;SDS011;12775;46.994;15.498;2023-06-04T03:55:04;11.88;;;9.72;;
1987;SDS011;12775;46.994;15.498;2023-06-04T03:57:31;11.88;;;9.60;;
1987;SDS011;12775;46.994;15.498;2023-06-04T03:59:58;9.70;;;8.42;;
1987;SDS011;12775;46.994;15.498;2023-06-04T04:02:25;10.56;;;9.28;;
1987;SDS011;12775;46.994;15.498;2023-06-04T04:04:51;10.62;;;8.14;;
1987;SDS011;12775;46.994;15.498;2023-06-04T04:07:18;9.42;;;8.62;;
1987;SDS011;12775;46.994;15.498;2023-06-04T04:09:45;10.58;;;9.68;;
1987;SDS011;12775;46.994;15.498;2023-06-04T04:12:11;11.70;;;9.64;;
1987;SDS011;12775;46.994;15.498;2023-06-04T04:14:38;13.30;;;9.94;;
1987;SDS011;12775;46.994;15.498;2023-06-04T04:17:04;11.44;;;10.32;;
1987;SDS011;12775;46.994;15.498;2023-06-04T04:19:32;10.62;;;9.62;;
1987;SDS011;12775;46.994;15.498;2023-06-04T04:21:58;10.64;;;9.56;;
1987;SDS011;12775;46.994;15.498;2023-06-04T04:24:26;9.20;;;8.30;;
1987;SDS011;12775;46.994;15.498;2023-06-04T04:26:53;11.04;;;9.94;;
1987;SDS011;12775;46.994;15.498;2023-06-04T04:29:20;10.56;;;9.66;;
1987;SDS011;12775;46.994;15.498;2023-06-04T04:31:49;9.88;;;8.98;;
1987;SDS011;12775;46.994;15.498;2023-06-04T04:34:15;11.96;;;8.68;;
1987;SDS011;12775;46.994;15.498;2023-06-04T04:36:43;14.64;;;9.72;;
1987;SDS011;12775;46.994;15.498;2023-06-04T04:39:10;13.80;;;10.14;;
1987;SDS011;12775;46.994;15.498;2023-06-04T04:41:37;13.36;;;10.92;;
1987;SDS011;12775;46.994;15.498;2023-06-04T04:44:04;11.96;;;10.74;;
1987;SDS011;12775;46.994;15.498;2023-06-04T04:46:31;14.28;;;12.10;;
1987;SDS011;12775;46.994;15.498;2023-06-04T04:48:59;13.72;;;11.56;;
1987;SDS011;12775;46.994;15.498;2023-06-04T04:51:25;13.20;;;11.90;;
1987;SDS011;12775;46.994;15.498;2023-06-04T04:53:52;12.78;;;11.44;;
1987;SDS011;12775;46.994;15.498;2023-06-04T04:56:19;13.08;;;10.72;;
1987;SDS011;12775;46.994;15.498;2023-06-04T04:58:45;13.16;;;11.86;;
1987;SDS011;12775;46.994;15.498;2023-06-04T05:01:13;11.54;;;10.54;;
1987;SDS011;12775;46.994;15.498;2023-06-04T05:03:40;13.70;;;11.52;;
1987;SDS011;12775;46.994;15.498;2023-06-04T05:06:06;12.62;;;11.42;;
1987;SDS011;12775;46.994;15.498;2023-06-04T05:08:33;13.12;;;10.84;;
1987;SDS011;12775;46.994;15.498;2023-06-04T05:11:00;11.40;;;9.58;;
1987;SDS011;12775;46.994;15.498;2023-06-04T05:13:27;11.26;;;10.26;;
1987;SDS011;12775;46.994;15.498;2023-06-04T05:15:53;12.26;;;11.22;;
1987;SDS011;12775;46.994;15.498;2023-06-04T05:18:20;11.06;;;9.74;;
1987;SDS011;12775;46.994;15.498;2023-06-04T05:20:46;11.46;;;10.38;;
1987;SDS011;12775;46.994;15.498;2023-06-04T05:23:13;11.78;;;10.58;;
1987;SDS011;12775;46.994;15.498;2023-06-04T05:25:40;12.76;;;10.48;;
1987;SDS011;12775;46.994;15.498;2023-06-04T05:28:07;9.78;;;8.82;;
1987;SDS011;12775;46.994;15.498;2023-06-04T05:30:34;11.28;;;10.06;;
1987;SDS011;12775;46.994;15.498;2023-06-04T05:33:01;12.60;;;11.24;;
1987;SDS011;12775;46.994;15.498;2023-06-04T05:35:28;16.92;;;10.38;;
1987;SDS011;12775;46.994;15.498;2023-06-04T05:37:55;11.40;;;10.30;;
1987;SDS011;12775;46.994;15.498;2023-06-04T05:40:22;11.72;;;10.52;;
1987;SDS011;12775;46.994;15.498;2023-06-04T05:42:48;12.76;;;11.46;;
1987;SDS011;12775;46.994;15.498;2023-06-04T05:45:15;12.20;;;10.98;;
1987;SDS011;12775;46.994;15.498;2023-06-04T05:47:42;11.88;;;10.72;;
1987;SDS011;12775;46.994;15.498;2023-06-04T05:50:08;10.88;;;9.82;;
1987;SDS011;12775;46.994;15.498;2023-06-04T05:52:35;13.22;;;10.66;;
1987;SDS011;12775;46.994;15.498;2023-06-04T05:55:02;21.84;;;11.14;;
1987;SDS011;12775;46.994;15.498;2023-06-04T05:57:29;11.96;;;10.52;;
1987;SDS011;12775;46.994;15.498;2023-06-04T05:59:56;13.60;;;12.34;;
1987;SDS011;12775;46.994;15.498;2023-06-04T06:02:23;12.30;;;11.18;;
1987;SDS011;12775;46.994;15.498;2023-06-04T06:04:49;14.46;;;11.04;;
1987;SDS011;12775;46.994;15.498;2023-06-04T06:07:17;11.74;;;10.58;;
1987;SDS011;12775;46.994;15.498;2023-06-04T06:09:43;11.86;;;10.72;;
1987;SDS011;12775;46.994;15.498;2023-06-04T06:12:10;10.94;;;9.90;;
1987;SDS011;12775;46.994;15.498;2023-06-04T06:14:36;12.00;;;10.48;;
1987;SDS011;12775;46.994;15.498;2023-06-04T06:17:03;14.64;;;10.74;;
1987;SDS011;12775;46.994;15.498;2023-06-04T06:19:30;12.46;;;11.26;;
1987;SDS011;12775;46.994;15.498;2023-06-04T06:21:57;13.44;;;12.02;;
1987;SDS011;12775;46.994;15.498;2023-06-04T06:24:23;15.00;;;10.76;;
1987;SDS011;12775;46.994;15.498;2023-06-04T06:26:51;11.14;;;10.18;;
1987;SDS011;12775;46.994;15.498;2023-06-04T06:29:17;11.86;;;9.52;;
1987;SDS011;12775;46.994;15.498;2023-06-04T06:31:44;10.26;;;9.42;;
1987;SDS011;12775;46.994;15.498;2023-06-04T06:34:10;10.36;;;8.98;;
1987;SDS011;12775;46.994;15.498;2023-06-04T06:36:37;10.84;;;9.84;;
1987;SDS011;12775;46.994;15.498;2023-06-04T06:39:04;9.94;;;8.88;;
1987;SDS011;12775;46.994;15.498;2023-06-04T06:41:30;11.70;;;10.70;;
1987;SDS011;12775;46.994;15.498;2023-06-04T06:43:57;14.30;;;11.14;;
1987;SDS011;12775;46.994;15.498;2023-06-04T06:46:25;12.34;;;11.02;;
1987;SDS011;12775;46.994;15.498;2023-06-04T06:48:52;9.54;;;8.64;;
1987;SDS011;12775;46.994;15.498;2023-06-04T06:51:19;11.56;;;9.18;;
1987;SDS011;12775;46.994;15.498;2023-06-04T06:53:46;10.24;;;9.08;;
1987;SDS011;12775;46.994;15.498;2023-06-04T06:56:13;8.92;;;8.14;;
1987;SDS011;12775;46.994;15.498;2023-06-04T06:58:39;12.06;;;9.88;;
1987;SDS011;12775;46.994;15.498;2023-06-04T07:01:06;10.78;;;8.58;;
1987;SDS011;12775;46.994;15.498;2023-06-04T07:03:33;9.98;;;9.02;;
1987;SDS011;12775;46.994;15.498;2023-06-04T07:05:59;9.48;;;8.66;;
1987;SDS011;12775;46.994;15.498;2023-06-04T07:08:26;9.90;;;8.30;;
1987;SDS011;12775;46.994;15.498;2023-06-04T07:10:53;10.28;;;9.22;;
1987;SDS011;12775;46.994;15.498;2023-06-04T07:13:20;12.18;;;8.98;;
1987;SDS011;12775;46.994;15.498;2023-06-04T07:15:47;10.60;;;8.54;;
1987;SDS011;12775;46.994;15.498;2023-06-04T07:18:14;8.90;;;8.20;;
1987;SDS011;12775;46.994;15.498;2023-06-04T07:20:40;15.16;;;8.00;;
1987;SDS011;12775;46.994;15.498;2023-06-04T07:23:07;9.06;;;8.30;;
1987;SDS011;12775;46.994;15.498;2023-06-04T07:25:34;8.66;;;7.86;;
1987;SDS011;12775;46.994;15.498;2023-06-04T07:28:00;10.94;;;9.74;;
1987;SDS011;12775;46.994;15.498;2023-06-04T07:30:27;11.00;;;8.54;;
1987;SDS011;12775;46.994;15.498;2023-06-04T07:32:54;9.00;;;8.20;;
1987;SDS011;12775;46.994;15.498;2023-06-04T07:35:20;9.20;;;8.22;;
1987;SDS011;12775;46.994;15.498;2023-06-04T07:37:47;7.58;;;6.94;;
1987;SDS011;12775;46.994;15.498;2023-06-04T07:40:13;10.54;;;9.32;;
1987;SDS011;12775;46.994;15.498;2023-06-04T07:42:41;8.16;;;7.46;;
1987;SDS011;12775;46.994;15.498;2023-06-04T07:45:08;8.92;;;8.02;;
1987;SDS011;12775;46.994;15.498;2023-06-04T07:47:35;9.78;;;8.82;;
1987;SDS011;12775;46.994;15.498;2023-06-04T07:50:03;8.70;;;8.00;;
1987;SDS011;12775;46.994;15.498;2023-06-04T07:52:30;8.62;;;7.82;;
1987;SDS011;12775;46.994;15.498;2023-06-04T07:54:57;9.64;;;7.60;;
1987;SDS011;12775;46.994;15.498;2023-06-04T07:57:23;6.86;;;6.30;;
1987;SDS011;12775;46.994;15.498;2023-06-04T07:59:50;8.50;;;7.66;;
1987;SDS011;12775;46.994;15.498;2023-06-04T08:02:16;8.86;;;7.22;;
1987;SDS011;12775;46.994;15.498;2023-06-04T08:04:44;9.70;;;8.12;;
1987;SDS011;12775;46.994;15.498;2023-06-04T08:07:10;8.62;;;7.92;;
1987;SDS011;12775;46.994;15.498;2023-06-04T08:09:36;8.26;;;7.56;;
1987;SDS011;12775;46.994;15.498;2023-06-04T08:12:03;7.42;;;5.92;;
1987;SDS011;12775;46.994;15.498;2023-06-04T08:14:29;6.88;;;6.24;;
1987;SDS011;12775;46.994;15.498;2023-06-04T08:16:57;6.44;;;5.94;;
1987;SDS011;12775;46.994;15.498;2023-06-04T08:19:23;9.84;;;6.98;;
1987;SDS011;12775;46.994;15.498;2023-06-04T08:21:50;7.18;;;6.16;;
1987;SDS011;12775;46.994;15.498;2023-06-04T08:24:17;10.18;;;7.26;;
1987;SDS011;12775;46.994;15.498;2023-06-04T08:26:44;15.52;;;7.90;;
1987;SDS011;12775;46.994;15.498;2023-06-04T08:29:10;7.58;;;6.98;;
1987;SDS011;12775;46.994;15.498;2023-06-04T08:31:38;6.72;;;6.10;;
1987;SDS011;12775;46.994;15.498;2023-06-04T08:34:05;7.16;;;6.08;;
1987;SDS011;12775;46.994;15.498;2023-06-04T08:36:31;8.76;;;7.26;;
1987;SDS011;12775;46.994;15.498;2023-06-04T08:38:59;8.80;;;7.84;;
1987;SDS011;12775;46.994;15.498;2023-06-04T08:41:34;10.18;;;6.98;;
1987;SDS011;12775;46.994;15.498;2023-06-04T08:44:01;8.18;;;5.96;;
1987;SDS011;12775;46.994;15.498;2023-06-04T08:46:28;22.50;;;7.98;;
1987;SDS011;12775;46.994;15.498;2023-06-04T08:48:56;6.58;;;5.98;;
1987;SDS011;12775;46.994;15.498;2023-06-04T08:51:21;8.10;;;6.78;;
1987;SDS011;12775;46.994;15.498;2023-06-04T08:53:48;6.92;;;6.30;;
1987;SDS011;12775;46.994;15.498;2023-06-04T08:56:15;9.70;;;6.82;;
1987;SDS011;12775;46.994;15.498;2023-06-04T08:58:42;7.14;;;5.50;;
1987;SDS011;12775;46.994;15.498;2023-06-04T09:01:09;9.36;;;5.54;;
1987;SDS011;12775;46.994;15.498;2023-06-04T09:03:36;12.08;;;6.12;;
1987;SDS011;12775;46.994;15.498;2023-06-04T09:06:03;5.86;;;5.42;;
1987;SDS011;12775;46.994;15.498;2023-06-04T09:08:31;7.18;;;6.58;;
1987;SDS011;12775;46.994;15.498;2023-06-04T09:10:57;6.74;;;6.20;;
1987;SDS011;12775;46.994;15.498;2023-06-04T09:13:27;7.92;;;7.22;;
1987;SDS011;12775;46.994;15.498;2023-06-04T09:18:28;8.06;;;6.40;;
1987;SDS011;12775;46.994;15.498;2023-06-04T09:21:00;8.74;;;7.58;;
1987;SDS011;12775;46.994;15.498;2023-06-04T09:23:49;6.36;;;5.86;;
1987;SDS011;12775;46.994;15.498;2023-06-04T09:26:16;6.90;;;6.24;;
1987;SDS011;12775;46.994;15.498;2023-06-04T09:28:43;8.52;;;6.24;;
1987;SDS011;12775;46.994;15.498;2023-06-04T09:31:14;6.82;;;6.26;;
1987;SDS011;12775;46.994;15.498;2023-06-04T09:33:43;6.70;;;6.18;;
1987;SDS011;12775;46.994;15.498;2023-06-04T09:36:10;7.24;;;5.88;;
1987;SDS011;12775;46.994;15.498;2023-06-04T09:38:37;9.34;;;5.98;;
1987;SDS011;12775;46.994;15.498;2023-06-04T09:41:04;6.66;;;6.06;;
1987;SDS011;12775;46.994;15.498;2023-06-04T09:43:30;8.60;;;6.54;;
1987;SDS011;12775;46.994;15.498;2023-06-04T09:46:07;7.68;;;6.38;;
1987;SDS011;12775;46.994;15.498;2023-06-04T09:48:24;7.54;;;6.34;;
1987;SDS011;12775;46.994;15.498;2023-06-04T09:50:50;7.08;;;6.38;;
1987;SDS011;12775;46.994;15.498;2023-06-04T09:53:18;7.46;;;6.38;;
1987;SDS011;12775;46.994;15.498;2023-06-04T09:55:44;10.06;;;6.88;;
1987;SDS011;12775;46.994;15.498;2023-06-04T09:58:11;7.74;;;6.94;;
1987;SDS011;12775;46.994;15.498;2023-06-04T10:00:38;7.80;;;6.76;;
1987;SDS011;12775;46.994;15.498;2023-06-04T10:03:04;8.48;;;6.08;;
1987;SDS011;12775;46.994;15.498;2023-06-04T10:05:32;7.68;;;6.90;;
1987;SDS011;12775;46.994;15.498;2023-06-04T10:07:59;7.86;;;6.78;;
1987;SDS011;12775;46.994;15.498;2023-06-04T10:10:26;7.64;;;6.94;;
1987;SDS011;12775;46.994;15.498;2023-06-04T10:12:54;8.74;;;7.18;;
1987;SDS011;12775;46.994;15.498;2023-06-04T10:15:20;7.98;;;7.18;;
1987;SDS011;12775;46.994;15.498;2023-06-04T10:17:47;8.70;;;7.82;;
1987;SDS011;12775;46.994;15.498;2023-06-04T10:20:14;7.96;;;7.14;;
1987;SDS011;12775;46.994;15.498;2023-06-04T10:22:41;7.28;;;6.68;;
1987;SDS011;12775;46.994;15.498;2023-06-04T10:25:08;7.26;;;6.62;;
1987;SDS011;12775;46.994;15.498;2023-06-04T10:27:34;6.62;;;6.12;;
1987;SDS011;12775;46.994;15.498;2023-06-04T10:30:01;6.92;;;6.32;;
1987;SDS011;12775;46.994;15.498;2023-06-04T10:32:28;7.74;;;7.04;;
1987;SDS011;12775;46.994;15.498;2023-06-04T10:34:54;6.72;;;6.14;;
1987;SDS011;12775;46.994;15.498;2023-06-04T10:37:21;7.02;;;6.32;;
1987;SDS011;12775;46.994;15.498;2023-06-04T10:39:51;10.94;;;6.56;;
1987;SDS011;12775;46.994;15.498;2023-06-04T10:42:17;7.44;;;6.74;;
1987;SDS011;12775;46.994;15.498;2023-06-04T10:44:46;7.38;;;6.60;;
1987;SDS011;12775;46.994;15.498;2023-06-04T10:47:19;8.32;;;7.42;;
1987;SDS011;12775;46.994;15.498;2023-06-04T10:49:46;8.62;;;7.24;;
1987;SDS011;12775;46.994;15.498;2023-06-04T10:52:12;7.74;;;7.14;;
1987;SDS011;12775;46.994;15.498;2023-06-04T10:54:40;7.78;;;7.08;;
1987;SDS011;12775;46.994;15.498;2023-06-04T10:57:12;9.36;;;7.44;;
1987;SDS011;12775;46.994;15.498;2023-06-04T10:59:39;10.36;;;9.46;;
1987;SDS011;12775;46.994;15.498;2023-06-04T11:02:05;8.16;;;7.56;;
1987;SDS011;12775;46.994;15.498;2023-06-04T11:04:33;7.56;;;6.96;;
1987;SDS011;12775;46.994;15.498;2023-06-04T11:07:00;8.12;;;7.52;;
1987;SDS011;12775;46.994;15.498;2023-06-04T11:09:30;8.42;;;7.00;;
1987;SDS011;12775;46.994;15.498;2023-06-04T11:11:58;12.04;;;7.58;;
1987;SDS011;12775;46.994;15.498;2023-06-04T11:14:23;9.16;;;8.16;;
1987;SDS011;12775;46.994;15.498;2023-06-04T11:16:50;7.94;;;7.28;;
1987;SDS011;12775;46.994;15.498;2023-06-04T11:19:17;8.48;;;7.50;;
1987;SDS011;12775;46.994;15.498;2023-06-04T11:21:44;9.12;;;8.42;;
1987;SDS011;12775;46.994;15.498;2023-06-04T11:24:11;7.94;;;7.24;;
1987;SDS011;12775;46.994;15.498;2023-06-04T11:26:36;8.04;;;7.34;;
1987;SDS011;12775;46.994;15.498;2023-06-04T11:29:05;7.62;;;6.92;;
1987;SDS011;12775;46.994;15.498;2023-06-04T11:34:09;7.56;;;7.00;;
1987;SDS011;12775;46.994;15.498;2023-06-04T11:36:35;8.62;;;7.78;;
1987;SDS011;12775;46.994;15.498;2023-06-04T11:39:02;9.78;;;8.22;;
1987;SDS011;12775;46.994;15.498;2023-06-04T11:41:29;8.62;;;6.82;;
1987;SDS011;12775;46.994;15.498;2023-06-04T11:43:56;9.50;;;8.08;;
1987;SDS011;12775;46.994;15.498;2023-06-04T11:46:23;9.62;;;8.26;;
1987;SDS011;12775;46.994;15.498;2023-06-04T11:48:51;8.10;;;7.30;;
1987;SDS011;12775;46.994;15.498;2023-06-04T11:51:17;9.42;;;7.64;;
1987;SDS011;12775;46.994;15.498;2023-06-04T11:53:43;8.48;;;7.16;;
1987;SDS011;12775;46.994;15.498;2023-06-04T11:56:10;9.32;;;8.42;;
1987;SDS011;12775;46.994;15.498;2023-06-04T11:58:36;8.22;;;7.46;;
1987;SDS011;12775;46.994;15.498;2023-06-04T12:01:03;8.70;;;7.82;;
1987;SDS011;12775;46.994;15.498;2023-06-04T12:03:35;8.80;;;7.98;;
1987;SDS011;12775;46.994;15.498;2023-06-04T12:08:34;10.16;;;8.74;;
1987;SDS011;12775;46.994;15.498;2023-06-04T12:11:01;8.14;;;7.38;;
1987;SDS011;12775;46.994;15.498;2023-06-04T12:13:27;8.94;;;7.70;;
1987;SDS011;12775;46.994;15.498;2023-06-04T12:15:54;8.70;;;7.90;;
1987;SDS011;12775;46.994;15.498;2023-06-04T12:18:23;9.50;;;7.42;;
1987;SDS011;12775;46.994;15.498;2023-06-04T12:20:49;9.42;;;8.32;;
1987;SDS011;12775;46.994;15.498;2023-06-04T12:23:19;9.50;;;8.70;;
1987;SDS011;12775;46.994;15.498;2023-06-04T12:25:42;9.20;;;8.14;;
1987;SDS011;12775;46.994;15.498;2023-06-04T12:28:17;7.96;;;7.20;;
1987;SDS011;12775;46.994;15.498;2023-06-04T12:30:38;7.82;;;7.18;;
1987;SDS011;12775;46.994;15.498;2023-06-04T12:33:04;9.62;;;7.86;;
1987;SDS011;12775;46.994;15.498;2023-06-04T12:35:32;8.76;;;7.64;;
1987;SDS011;12775;46.994;15.498;2023-06-04T12:37:58;9.20;;;8.30;;
1987;SDS011;12775;46.994;15.498;2023-06-04T12:40:24;9.44;;;8.64;;
1987;SDS011;12775;46.994;15.498;2023-06-04T12:42:51;8.30;;;6.78;;
1987;SDS011;12775;46.994;15.498;2023-06-04T12:45:18;8.26;;;7.18;;
1987;SDS011;12775;46.994;15.498;2023-06-04T12:47:44;7.66;;;7.02;;
1987;SDS011;12775;46.994;15.498;2023-06-04T12:50:11;9.20;;;8.28;;
1987;SDS011;12775;46.994;15.498;2023-06-04T12:52:37;8.44;;;7.60;;
1987;SDS011;12775;46.994;15.498;2023-06-04T12:55:04;7.76;;;6.90;;
1987;SDS011;12775;46.994;15.498;2023-06-04T12:57:31;8.28;;;7.54;;
1987;SDS011;12775;46.994;15.498;2023-06-04T12:59:58;9.64;;;8.74;;
1987;SDS011;12775;46.994;15.498;2023-06-04T13:02:24;8.30;;;7.60;;
1987;SDS011;12775;46.994;15.498;2023-06-04T13:04:52;11.14;;;9.82;;
1987;SDS011;12775;46.994;15.498;2023-06-04T13:07:19;10.76;;;9.10;;
1987;SDS011;12775;46.994;15.498;2023-06-04T13:09:45;10.40;;;8.80;;
1987;SDS011;12775;46.994;15.498;2023-06-04T13:12:12;11.48;;;8.58;;
1987;SDS011;12775;46.994;15.498;2023-06-04T13:14:39;10.20;;;9.20;;
1987;SDS011;12775;46.994;15.498;2023-06-04T13:17:05;11.28;;;10.24;;
1987;SDS011;12775;46.994;15.498;2023-06-04T13:19:34;10.36;;;9.34;;
1987;SDS011;12775;46.994;15.498;2023-06-04T13:21:59;10.74;;;9.32;;
1987;SDS011;12775;46.994;15.498;2023-06-04T13:24:26;10.20;;;8.44;;
1987;SDS011;12775;46.994;15.498;2023-06-04T13:26:52;9.82;;;8.72;;
1987;SDS011;12775;46.994;15.498;2023-06-04T13:29:19;13.68;;;9.88;;
1987;SDS011;12775;46.994;15.498;2023-06-04T13:31:45;9.76;;;8.76;;
1987;SDS011;12775;46.994;15.498;2023-06-04T13:34:12;8.92;;;7.98;;
1987;SDS011;12775;46.994;15.498;2023-06-04T13:36:39;10.18;;;9.38;;
1987;SDS011;12775;46.994;15.498;2023-06-04T13:39:05;11.96;;;10.56;;
1987;SDS011;12775;46.994;15.498;2023-06-04T13:41:32;11.26;;;10.26;;
1987;SDS011;12775;46.994;15.498;2023-06-04T13:43:58;15.28;;;11.38;;
1987;SDS011;12775;46.994;15.498;2023-06-04T13:46:25;23.42;;;11.96;;
1987;SDS011;12775;46.994;15.498;2023-06-04T13:48:52;17.26;;;11.50;;
1987;SDS011;12775;46.994;15.498;2023-06-04T13:51:18;16.00;;;13.48;;
1987;SDS011;12775;46.994;15.498;2023-06-04T13:53:46;15.48;;;12.58;;
1987;SDS011;12775;46.994;15.498;2023-06-04T13:56:12;21.84;;;14.06;;
1987;SDS011;12775;46.994;15.498;2023-06-04T13:58:39;22.60;;;14.58;;
1987;SDS011;12775;46.994;15.498;2023-06-04T14:01:07;14.98;;;13.58;;
1987;SDS011;12775;46.994;15.498;2023-06-04T14:03:33;19.32;;;13.10;;
1987;SDS011;12775;46.994;15.498;2023-06-04T14:06:00;18.92;;;14.14;;
1987;SDS011;12775;46.994;15.498;2023-06-04T14:08:26;16.58;;;14.22;;
1987;SDS011;12775;46.994;15.498;2023-06-04T14:10:53;19.38;;;14.04;;
1987;SDS011;12775;46.994;15.498;2023-06-04T14:13:20;13.34;;;11.40;;
1987;SDS011;12775;46.994;15.498;2023-06-04T14:15:46;14.28;;;12.86;;
1987;SDS011;12775;46.994;15.498;2023-06-04T14:18:13;12.38;;;9.66;;
1987;SDS011;12775;46.994;15.498;2023-06-04T14:20:40;13.08;;;7.24;;
1987;SDS011;12775;46.994;15.498;2023-06-04T14:23:07;7.58;;;6.88;;
1987;SDS011;12775;46.994;15.498;2023-06-04T14:25:33;8.44;;;7.00;;
1987;SDS011;12775;46.994;15.498;2023-06-04T14:28:00;7.54;;;6.00;;
1987;SDS011;12775;46.994;15.498;2023-06-04T14:30:27;7.06;;;5.00;;
1987;SDS011;12775;46.994;15.498;2023-06-04T14:32:54;6.02;;;4.72;;
1987;SDS011;12775;46.994;15.498;2023-06-04T14:35:20;3.86;;;3.36;;
1987;SDS011;12775;46.994;15.498;2023-06-04T14:37:47;8.66;;;3.60;;
1987;SDS011;12775;46.994;15.498;2023-06-04T14:40:14;7.52;;;4.20;;
1987;SDS011;12775;46.994;15.498;2023-06-04T14:42:40;4.72;;;4.22;;
1987;SDS011;12775;46.994;15.498;2023-06-04T14:45:07;4.72;;;4.32;;